createdAt,value
2017-10-05T00:00:38.169Z,12.09
2017-10-05T00:01:38.167Z,12.15
2017-10-05T00:02:38.167Z,12.18
2017-10-05T00:03:38.165Z,12.13
2017-10-05T00:04:38.165Z,12.04
2017-10-05T00:05:38.166Z,12.10
2017-10-05T00:06:38.164Z,12.15
2017-10-05T00:07:38.163Z,12.12
2017-10-05T00:08:38.159Z,12.03
2017-10-05T00:09:38.160Z,12.10
2017-10-05T00:10:38.158Z,12.02
2017-10-05T00:11:38.158Z,12.02
2017-10-05T00:12:38.159Z,11.99
2017-10-05T00:13:38.156Z,12.03
2017-10-05T00:14:38.155Z,12.00
2017-10-05T00:15:38.156Z,12.00
2017-10-05T00:16:38.152Z,11.90
2017-10-05T00:17:38.152Z,11.88
2017-10-05T00:18:38.150Z,12.06
2017-10-05T00:19:38.151Z,11.97
2017-10-05T00:20:38.148Z,12.03
2017-10-05T00:21:38.149Z,11.88
2017-10-05T00:22:38.146Z,11.88
2017-10-05T00:23:38.147Z,11.91
2017-10-05T00:24:38.144Z,12.00
2017-10-05T00:25:38.144Z,11.95
2017-10-05T00:26:38.142Z,11.95
2017-10-05T00:27:38.142Z,11.80
2017-10-05T00:28:38.139Z,11.97
2017-10-05T00:29:57.345Z,11.94
2017-10-05T00:30:38.138Z,11.91
2017-10-05T00:31:38.137Z,11.94
2017-10-05T00:32:38.135Z,11.90
2017-10-05T00:33:38.135Z,12.00
2017-10-05T00:34:38.134Z,11.94
2017-10-05T00:35:38.138Z,11.99
2017-10-05T00:36:38.132Z,12.00
2017-10-05T00:37:38.131Z,11.86
2017-10-05T00:38:38.129Z,11.99
2017-10-05T00:39:38.132Z,11.83
2017-10-05T00:40:38.126Z,11.86
2017-10-05T00:41:38.126Z,11.84
2017-10-05T00:42:38.125Z,11.91
2017-10-05T00:43:38.123Z,11.83
2017-10-05T00:44:38.121Z,11.83
2017-10-05T00:45:38.121Z,11.90
2017-10-05T00:46:38.122Z,11.81
2017-10-05T00:47:38.119Z,11.86
2017-10-05T00:48:38.116Z,11.84
2017-10-05T00:49:38.116Z,11.86
2017-10-05T00:50:38.115Z,11.78
2017-10-05T00:51:38.115Z,11.86
2017-10-05T00:52:38.112Z,11.80
2017-10-05T00:53:38.111Z,11.86
2017-10-05T00:54:38.110Z,11.81
2017-10-05T00:55:38.110Z,11.81
2017-10-05T00:56:38.108Z,11.81
2017-10-05T00:57:38.105Z,11.81
2017-10-05T00:58:38.108Z,11.81
2017-10-05T00:59:38.104Z,11.80
2017-10-05T01:00:38.102Z,11.80
2017-10-05T01:01:38.100Z,11.69
2017-10-05T01:02:38.101Z,11.73
2017-10-05T01:03:38.100Z,11.73
2017-10-05T01:04:38.097Z,11.80
2017-10-05T01:05:38.094Z,11.80
2017-10-05T01:06:38.094Z,11.72
2017-10-05T01:07:38.094Z,11.77
2017-10-05T01:08:38.093Z,11.73
2017-10-05T01:09:38.089Z,11.69
2017-10-05T01:10:38.090Z,11.72
2017-10-05T01:11:38.087Z,11.72
2017-10-05T01:12:38.084Z,11.77
2017-10-05T01:13:38.085Z,11.78
2017-10-05T01:14:38.083Z,11.69
2017-10-05T01:15:38.082Z,11.70
2017-10-05T01:16:38.080Z,11.73
2017-10-05T01:17:38.081Z,11.69
2017-10-05T01:18:38.077Z,11.63
2017-10-05T01:19:38.075Z,11.72
2017-10-05T01:20:38.075Z,11.72
2017-10-05T01:21:38.071Z,11.73
2017-10-05T01:22:38.072Z,11.66
2017-10-05T01:23:38.071Z,11.75
2017-10-05T01:24:38.072Z,11.66
2017-10-05T01:25:38.067Z,11.65
2017-10-05T01:26:38.066Z,11.62
2017-10-05T01:27:38.065Z,11.69
2017-10-05T01:28:38.062Z,11.69
2017-10-05T01:29:38.065Z,11.63
2017-10-05T01:30:38.060Z,11.72
2017-10-05T01:31:38.058Z,11.65
2017-10-05T01:32:38.057Z,11.62
2017-10-05T01:33:38.055Z,11.68
2017-10-05T01:34:38.053Z,11.65
2017-10-05T01:35:38.053Z,11.68
2017-10-05T01:36:38.051Z,11.66
2017-10-05T01:37:38.050Z,11.65
2017-10-05T01:38:38.047Z,11.65
2017-10-05T01:39:38.047Z,11.70
2017-10-05T01:40:38.044Z,11.66
2017-10-05T01:41:38.043Z,11.62
2017-10-05T01:42:38.044Z,11.63
2017-10-05T01:43:38.041Z,11.65
2017-10-05T01:44:38.037Z,11.66
2017-10-05T01:45:38.036Z,11.70
2017-10-05T01:46:38.036Z,11.73
2017-10-05T01:47:38.035Z,11.63
2017-10-05T01:48:38.031Z,11.68
2017-10-05T01:49:38.031Z,11.65
2017-10-05T01:50:38.028Z,11.63
2017-10-05T01:51:38.027Z,11.75
2017-10-05T01:52:38.027Z,11.69
2017-10-05T01:53:38.031Z,11.62
2017-10-05T01:54:38.023Z,11.65
2017-10-05T01:55:38.022Z,11.65
2017-10-05T01:56:38.020Z,11.63
2017-10-05T01:57:38.018Z,11.63
2017-10-05T01:58:38.016Z,11.65
2017-10-05T01:59:38.016Z,11.65
2017-10-05T02:00:38.016Z,11.66
2017-10-05T02:01:38.019Z,11.68
2017-10-05T02:02:38.012Z,11.63
2017-10-05T02:03:38.010Z,11.62
2017-10-05T02:04:38.008Z,11.62
2017-10-05T02:05:38.007Z,11.60
2017-10-05T02:06:38.004Z,11.63
2017-10-05T02:07:38.003Z,11.63
2017-10-05T02:08:38.001Z,11.70
2017-10-05T02:09:38.001Z,11.62
2017-10-05T02:10:38.005Z,11.68
2017-10-05T02:11:37.997Z,11.62
2017-10-05T02:12:37.994Z,11.63
2017-10-05T02:13:37.993Z,11.66
2017-10-05T02:14:37.991Z,11.60
2017-10-05T02:15:37.992Z,11.60
2017-10-05T02:16:37.989Z,11.65
2017-10-05T02:17:37.987Z,11.63
2017-10-05T02:18:37.987Z,11.62
2017-10-05T02:19:37.986Z,11.65
2017-10-05T02:20:37.982Z,11.65
2017-10-05T02:21:37.981Z,11.63
2017-10-05T02:22:37.981Z,11.68
2017-10-05T02:23:37.979Z,11.62
2017-10-05T02:24:37.977Z,11.54
2017-10-05T02:25:37.974Z,11.68
2017-10-05T02:26:37.974Z,11.68
2017-10-05T02:27:37.971Z,11.59
2017-10-05T02:28:37.970Z,11.65
2017-10-05T02:29:37.969Z,11.57
2017-10-05T02:30:37.967Z,11.55
2017-10-05T02:31:37.966Z,11.59
2017-10-05T02:32:37.963Z,11.51
2017-10-05T02:33:37.961Z,11.59
2017-10-05T02:34:37.961Z,11.63
2017-10-05T02:35:37.959Z,11.57
2017-10-05T02:36:37.955Z,11.60
2017-10-05T02:37:37.956Z,11.60
2017-10-05T02:38:37.954Z,11.62
2017-10-05T02:39:37.953Z,11.55
2017-10-05T02:40:37.949Z,11.62
2017-10-05T02:41:37.949Z,11.59
2017-10-05T02:42:37.948Z,11.62
2017-10-05T02:43:37.945Z,11.52
2017-10-05T02:44:37.943Z,11.50
2017-10-05T02:45:37.942Z,11.59
2017-10-05T02:46:37.941Z,11.55
2017-10-05T02:47:37.940Z,11.59
2017-10-05T02:48:37.936Z,11.52
2017-10-05T02:49:37.936Z,11.50
2017-10-05T02:50:37.934Z,11.60
2017-10-05T02:51:37.935Z,11.54
2017-10-05T02:52:37.931Z,11.54
2017-10-05T02:53:37.931Z,11.52
2017-10-05T02:54:37.928Z,11.51
2017-10-05T02:55:37.927Z,11.48
2017-10-05T02:56:37.923Z,11.60
2017-10-05T02:57:37.923Z,11.54
2017-10-05T02:58:37.921Z,11.51
2017-10-05T02:59:37.919Z,11.57
2017-10-05T03:00:37.917Z,11.65
2017-10-05T03:01:37.916Z,11.55
2017-10-05T03:02:37.915Z,11.60
2017-10-05T03:03:37.912Z,11.57
2017-10-05T03:04:37.909Z,11.65
2017-10-05T03:05:37.909Z,11.62
2017-10-05T03:06:37.912Z,11.59
2017-10-05T03:07:37.906Z,11.65
2017-10-05T03:08:37.908Z,11.59
2017-10-05T03:09:37.902Z,11.57
2017-10-05T03:10:37.901Z,11.66
2017-10-05T03:11:37.899Z,11.63
2017-10-05T03:12:37.897Z,11.62
2017-10-05T03:13:37.896Z,11.63
2017-10-05T03:14:37.894Z,11.65
2017-10-05T03:15:37.893Z,11.66
2017-10-05T03:16:37.892Z,11.65
2017-10-05T03:17:37.890Z,11.69
2017-10-05T03:18:37.888Z,11.69
2017-10-05T03:19:37.888Z,11.62
2017-10-05T03:20:37.883Z,11.65
2017-10-05T03:21:37.883Z,11.60
2017-10-05T03:22:37.881Z,11.63
2017-10-05T03:23:37.880Z,11.63
2017-10-05T03:24:37.877Z,11.54
2017-10-05T03:25:37.875Z,11.57
2017-10-05T03:26:37.875Z,11.60
2017-10-05T03:27:37.874Z,11.55
2017-10-05T03:28:37.870Z,11.57
2017-10-05T03:29:37.870Z,11.60
2017-10-05T03:30:37.869Z,11.59
2017-10-05T03:31:37.866Z,11.54
2017-10-05T03:32:37.865Z,11.50
2017-10-05T03:33:37.864Z,11.52
2017-10-05T03:34:37.862Z,11.54
2017-10-05T03:35:37.862Z,11.60
2017-10-05T03:36:37.861Z,11.63
2017-10-05T03:37:37.857Z,11.60
2017-10-05T03:38:37.857Z,11.59
2017-10-05T03:39:37.854Z,11.51
2017-10-05T03:40:37.855Z,11.57
2017-10-05T03:41:37.852Z,11.55
2017-10-05T03:42:37.851Z,11.62
2017-10-05T03:43:37.851Z,11.59
2017-10-05T03:44:37.845Z,11.62
2017-10-05T03:45:37.845Z,11.63
2017-10-05T03:46:37.844Z,11.60
2017-10-05T03:47:37.841Z,11.57
2017-10-05T03:48:37.839Z,11.65
2017-10-05T03:49:37.838Z,11.62
2017-10-05T03:50:37.838Z,11.57
2017-10-05T03:51:37.835Z,11.62
2017-10-05T03:52:37.833Z,11.66
2017-10-05T03:53:37.833Z,11.60
2017-10-05T03:54:37.830Z,11.55
2017-10-05T03:55:37.830Z,11.66
2017-10-05T03:56:37.827Z,11.57
2017-10-05T03:57:37.826Z,11.54
2017-10-05T03:58:37.825Z,11.65
2017-10-05T03:59:37.824Z,11.63
2017-10-05T04:00:37.822Z,11.62
2017-10-05T04:01:37.823Z,11.59
2017-10-05T04:02:37.819Z,11.68
2017-10-05T04:03:37.818Z,11.63
2017-10-05T04:04:37.815Z,11.65
2017-10-05T04:05:37.813Z,11.63
2017-10-05T04:06:37.812Z,11.66
2017-10-05T04:07:37.811Z,11.60
2017-10-05T04:08:37.811Z,11.60
2017-10-05T04:09:37.808Z,11.60
2017-10-05T04:10:37.806Z,11.69
2017-10-05T04:11:37.805Z,11.68
2017-10-05T04:12:37.804Z,11.69
2017-10-05T04:13:37.801Z,11.65
2017-10-05T04:14:37.800Z,11.66
2017-10-05T04:15:37.799Z,11.63
2017-10-05T04:16:37.798Z,11.68
2017-10-05T04:17:37.795Z,11.73
2017-10-05T04:18:37.795Z,11.72
2017-10-05T04:19:37.792Z,11.70
2017-10-05T04:20:37.789Z,11.75
2017-10-05T04:21:37.789Z,11.69
2017-10-05T04:22:37.787Z,11.72
2017-10-05T04:23:37.785Z,11.68
2017-10-05T04:24:37.786Z,11.72
2017-10-05T04:25:37.783Z,11.80
2017-10-05T04:26:37.782Z,11.75
2017-10-05T04:27:37.779Z,11.80
2017-10-05T04:28:37.783Z,11.83
2017-10-05T04:29:37.777Z,11.69
2017-10-05T04:30:37.775Z,11.72
2017-10-05T04:31:37.775Z,11.81
2017-10-05T04:32:37.772Z,11.81
2017-10-05T04:33:37.770Z,11.84
2017-10-05T04:34:37.768Z,11.83
2017-10-05T04:35:37.769Z,11.84
2017-10-05T04:36:37.766Z,11.84
2017-10-05T04:37:37.763Z,11.78
2017-10-05T04:38:37.762Z,11.83
2017-10-05T04:39:37.761Z,11.80
2017-10-05T04:40:37.767Z,11.84
2017-10-05T04:41:37.757Z,11.81
2017-10-05T04:42:37.758Z,11.78
2017-10-05T04:43:37.757Z,11.81
2017-10-05T04:44:37.753Z,11.87
2017-10-05T04:45:37.752Z,11.80
2017-10-05T04:46:37.751Z,11.83
2017-10-05T04:47:37.748Z,11.81
2017-10-05T04:48:37.749Z,11.81
2017-10-05T04:49:37.746Z,11.83
2017-10-05T04:50:37.744Z,11.86
2017-10-05T04:51:37.744Z,11.84
2017-10-05T04:52:37.742Z,11.86
2017-10-05T04:53:37.740Z,11.86
2017-10-05T04:54:37.738Z,11.87
2017-10-05T04:55:37.739Z,11.86
2017-10-05T04:56:37.736Z,11.90
2017-10-05T04:57:37.735Z,11.83
2017-10-05T04:58:37.736Z,11.81
2017-10-05T04:59:37.732Z,11.86
2017-10-05T05:00:37.732Z,11.88
2017-10-05T05:01:37.736Z,11.86
2017-10-05T05:02:37.727Z,11.78
2017-10-05T05:03:37.726Z,11.94
2017-10-05T05:04:37.724Z,11.95
2017-10-05T05:05:37.724Z,11.91
2017-10-05T05:06:37.721Z,11.90
2017-10-05T05:07:37.722Z,11.95
2017-10-05T05:08:37.720Z,11.90
2017-10-05T05:09:37.718Z,12.00
2017-10-05T05:10:37.717Z,11.88
2017-10-05T05:11:37.715Z,11.90
2017-10-05T05:12:37.712Z,11.91
2017-10-05T05:13:37.715Z,11.86
2017-10-05T05:14:37.711Z,11.97
2017-10-05T05:15:37.710Z,11.95
2017-10-05T05:16:37.708Z,11.97
2017-10-05T05:17:37.707Z,11.86
2017-10-05T05:18:37.707Z,11.88
2017-10-05T05:19:37.704Z,11.97
2017-10-05T05:20:37.702Z,11.87
2017-10-05T05:21:37.710Z,11.90
2017-10-05T05:22:37.698Z,11.99
2017-10-05T05:23:37.698Z,11.88
2017-10-05T05:24:37.696Z,11.95
2017-10-05T05:25:37.696Z,11.95
2017-10-05T05:26:37.694Z,12.00
2017-10-05T05:27:37.693Z,11.99
2017-10-05T05:28:37.689Z,12.02
2017-10-05T05:29:37.688Z,12.00
2017-10-05T05:30:37.688Z,12.02
2017-10-05T05:31:37.686Z,12.03
2017-10-05T05:32:37.684Z,12.04
2017-10-05T05:33:37.682Z,12.00
2017-10-05T05:34:37.682Z,12.04
2017-10-05T05:35:37.681Z,12.07
2017-10-05T05:36:37.678Z,12.13
2017-10-05T05:37:37.676Z,12.10
2017-10-05T05:38:37.676Z,12.15
2017-10-05T05:39:37.674Z,12.06
2017-10-05T05:40:37.672Z,12.13
2017-10-05T05:41:37.673Z,12.13
2017-10-05T05:42:37.672Z,12.12
2017-10-05T05:43:37.669Z,12.13
2017-10-05T05:44:37.665Z,12.17
2017-10-05T05:45:37.665Z,12.17
2017-10-05T05:46:37.666Z,12.15
2017-10-05T05:47:37.663Z,12.13
2017-10-05T05:48:37.660Z,12.13
2017-10-05T05:49:37.661Z,12.15
2017-10-05T05:50:37.659Z,12.17
2017-10-05T05:51:37.657Z,12.15
2017-10-05T05:52:37.655Z,12.18
2017-10-05T05:53:37.654Z,12.18
2017-10-05T05:54:37.652Z,12.17
2017-10-05T05:55:37.653Z,12.10
2017-10-05T05:56:37.652Z,12.24
2017-10-05T05:57:37.649Z,12.25
2017-10-05T05:58:37.648Z,12.27
2017-10-05T05:59:37.646Z,12.31
2017-10-05T06:00:37.644Z,12.28
2017-10-05T06:01:37.644Z,12.28
2017-10-05T06:02:37.643Z,12.31
2017-10-05T06:03:37.642Z,12.25
2017-10-05T06:04:37.639Z,12.28
2017-10-05T06:05:37.637Z,12.37
2017-10-05T06:06:37.636Z,12.36
2017-10-05T06:07:37.635Z,12.35
2017-10-05T06:08:37.634Z,12.28
2017-10-05T06:09:37.637Z,12.31
2017-10-05T06:10:37.632Z,12.31
2017-10-05T06:11:37.631Z,12.35
2017-10-05T06:12:37.629Z,12.25
2017-10-05T06:13:37.628Z,12.24
2017-10-05T06:14:37.626Z,12.27
2017-10-05T06:15:37.629Z,12.29
2017-10-05T06:16:37.624Z,12.32
2017-10-05T06:17:37.623Z,12.39
2017-10-05T06:18:37.622Z,12.40
2017-10-05T06:19:37.621Z,12.37
2017-10-05T06:20:37.617Z,12.42
2017-10-05T06:21:37.616Z,12.43
2017-10-05T06:22:37.628Z,12.39
2017-10-05T06:23:37.615Z,12.42
2017-10-05T06:24:37.614Z,12.39
2017-10-05T06:25:37.616Z,12.46
2017-10-05T06:26:37.611Z,12.43
2017-10-05T06:27:37.609Z,12.39
2017-10-05T06:28:37.607Z,12.36
2017-10-05T06:29:37.606Z,12.45
2017-10-05T06:30:37.606Z,12.39
2017-10-05T06:31:37.604Z,12.45
2017-10-05T06:32:37.603Z,12.47
2017-10-05T06:33:37.601Z,12.46
2017-10-05T06:34:37.607Z,12.42
2017-10-05T06:35:37.599Z,12.43
2017-10-05T06:36:37.599Z,12.40
2017-10-05T06:37:37.597Z,12.39
2017-10-05T06:38:37.598Z,12.46
2017-10-05T06:39:37.594Z,12.45
2017-10-05T06:40:37.594Z,12.40
2017-10-05T06:41:37.592Z,12.54
2017-10-05T06:42:37.590Z,12.50
2017-10-05T06:43:37.591Z,12.53
2017-10-05T06:44:37.588Z,12.53
2017-10-05T06:45:37.587Z,12.57
2017-10-05T06:46:37.587Z,12.57
2017-10-05T06:47:37.585Z,12.60
2017-10-05T06:48:37.585Z,12.57
2017-10-05T06:49:37.583Z,12.58
2017-10-05T06:50:37.580Z,12.60
2017-10-05T06:51:37.579Z,12.57
2017-10-05T06:52:37.579Z,12.57
2017-10-05T06:53:37.579Z,12.57
2017-10-05T06:54:37.577Z,12.58
2017-10-05T06:55:37.575Z,12.60
2017-10-05T06:56:37.574Z,12.67
2017-10-05T06:57:37.572Z,12.64
2017-10-05T06:58:37.570Z,12.61
2017-10-05T06:59:37.571Z,12.64
2017-10-05T07:00:37.569Z,12.67
2017-10-05T07:01:37.568Z,12.62
2017-10-05T07:02:37.566Z,12.64
2017-10-05T07:03:37.566Z,12.64
2017-10-05T07:04:37.564Z,12.64
2017-10-05T07:05:37.563Z,12.67
2017-10-05T07:06:37.560Z,12.79
2017-10-05T07:07:37.562Z,12.78
2017-10-05T07:08:37.559Z,12.68
2017-10-05T07:09:37.557Z,12.62
2017-10-05T07:10:37.556Z,12.65
2017-10-05T07:11:37.555Z,12.62
2017-10-05T07:12:37.555Z,12.67
2017-10-05T07:13:37.552Z,12.73
2017-10-05T07:14:37.553Z,12.67
2017-10-05T07:15:37.552Z,12.70
2017-10-05T07:16:37.550Z,12.78
2017-10-05T07:17:37.549Z,12.68
2017-10-05T07:18:37.548Z,12.76
2017-10-05T07:19:37.546Z,12.79
2017-10-05T07:20:37.546Z,12.72
2017-10-05T07:21:37.543Z,12.72
2017-10-05T07:22:37.547Z,12.79
2017-10-05T07:23:37.543Z,12.76
2017-10-05T07:24:37.541Z,12.79
2017-10-05T07:25:37.539Z,12.80
2017-10-05T07:26:37.539Z,12.76
2017-10-05T07:27:37.537Z,12.78
2017-10-05T07:28:37.536Z,12.75
2017-10-05T07:29:37.536Z,12.75
2017-10-05T07:30:37.534Z,12.75
2017-10-05T07:31:37.533Z,12.83
2017-10-05T07:32:37.538Z,12.78
2017-10-05T07:33:37.530Z,12.93
2017-10-05T07:34:37.537Z,12.79
2017-10-05T07:35:37.530Z,12.80
2017-10-05T07:36:37.527Z,12.83
2017-10-05T07:37:37.530Z,12.79
2017-10-05T07:38:37.527Z,12.85
2017-10-05T07:39:37.526Z,12.86
2017-10-05T07:40:37.526Z,12.83
2017-10-05T07:41:37.523Z,12.86
2017-10-05T07:42:37.522Z,12.79
2017-10-05T07:43:37.524Z,12.94
2017-10-05T07:44:37.520Z,13.01
2017-10-05T07:45:37.519Z,13.03
2017-10-05T07:46:37.519Z,13.03
2017-10-05T07:47:37.517Z,13.04
2017-10-05T07:48:37.515Z,12.98
2017-10-05T07:49:37.515Z,13.01
2017-10-05T07:50:37.515Z,12.97
2017-10-05T07:51:37.512Z,13.01
2017-10-05T07:52:37.511Z,13.12
2017-10-05T07:53:37.514Z,13.13
2017-10-05T07:54:37.510Z,13.04
2017-10-05T07:55:37.510Z,13.15
2017-10-05T07:56:37.510Z,13.09
2017-10-05T07:57:37.508Z,13.11
2017-10-05T07:58:37.507Z,13.18
2017-10-05T07:59:37.507Z,13.19
2017-10-05T08:00:37.504Z,13.20
2017-10-05T08:01:37.504Z,13.25
2017-10-05T08:02:37.504Z,13.22
2017-10-05T08:03:37.503Z,13.31
2017-10-05T08:04:37.501Z,13.33
2017-10-05T08:05:37.500Z,13.33
2017-10-05T08:06:37.500Z,13.41
2017-10-05T08:07:37.499Z,13.41
2017-10-05T08:08:37.498Z,13.39
2017-10-05T08:09:37.497Z,13.31
2017-10-05T08:10:37.500Z,13.41
2017-10-05T08:11:37.497Z,13.42
2017-10-05T08:12:37.498Z,13.44
2017-10-05T08:13:37.498Z,13.37
2017-10-05T08:14:37.493Z,13.57
2017-10-05T08:15:37.492Z,13.59
2017-10-05T08:16:37.491Z,13.62
2017-10-05T08:17:37.491Z,13.65
2017-10-05T08:18:37.490Z,13.65
2017-10-05T08:19:37.490Z,13.67
2017-10-05T08:20:37.489Z,13.67
2017-10-05T08:21:37.489Z,13.79
2017-10-05T08:22:37.489Z,13.71
2017-10-05T08:23:37.488Z,13.81
2017-10-05T08:24:37.485Z,13.83
2017-10-05T08:25:37.486Z,13.83
2017-10-05T08:26:37.485Z,13.83
2017-10-05T08:27:37.486Z,13.78
2017-10-05T08:28:37.483Z,13.78
2017-10-05T08:29:37.482Z,13.90
2017-10-05T08:30:37.484Z,13.96
2017-10-05T08:31:37.489Z,13.96
2017-10-05T08:32:37.482Z,13.85
2017-10-05T08:33:37.482Z,13.96
2017-10-05T08:34:37.482Z,13.95
2017-10-05T08:35:37.487Z,13.93
2017-10-05T08:36:37.479Z,14.03
2017-10-05T08:37:37.478Z,14.00
2017-10-05T08:38:37.479Z,14.10
2017-10-05T08:39:37.478Z,14.07
2017-10-05T08:40:37.478Z,14.10
2017-10-05T08:41:37.478Z,14.04
2017-10-05T08:42:37.478Z,14.17
2017-10-05T08:43:37.478Z,14.07
2017-10-05T08:44:37.478Z,14.20
2017-10-05T08:45:37.475Z,14.22
2017-10-05T08:46:37.477Z,14.18
2017-10-05T08:47:37.482Z,14.18
2017-10-05T08:48:37.475Z,14.22
2017-10-05T08:49:37.475Z,14.25
2017-10-05T08:50:37.476Z,14.18
2017-10-05T08:51:37.475Z,14.22
2017-10-05T08:52:37.474Z,14.30
2017-10-05T08:53:37.474Z,14.30
2017-10-05T08:54:37.475Z,14.36
2017-10-05T08:55:37.475Z,14.32
2017-10-05T08:56:37.474Z,14.43
2017-10-05T08:57:37.474Z,14.40
2017-10-05T08:58:37.475Z,14.37
2017-10-05T08:59:37.475Z,14.44
2017-10-05T09:00:37.474Z,14.47
2017-10-05T09:01:37.473Z,14.48
2017-10-05T09:02:37.476Z,14.53
2017-10-05T09:03:37.475Z,14.51
2017-10-05T09:04:37.473Z,14.54
2017-10-05T09:05:37.474Z,14.54
2017-10-05T09:06:37.474Z,14.50
2017-10-05T09:07:37.475Z,14.68
2017-10-05T09:08:37.473Z,14.66
2017-10-05T09:09:37.474Z,14.73
2017-10-05T09:10:37.475Z,14.78
2017-10-05T09:11:37.474Z,14.70
2017-10-05T09:12:37.475Z,14.79
2017-10-05T09:13:37.475Z,14.85
2017-10-05T09:14:37.476Z,14.84
2017-10-05T09:15:37.476Z,14.85
2017-10-05T09:16:37.475Z,14.85
2017-10-05T09:17:37.477Z,14.82
2017-10-05T09:18:37.475Z,14.85
2017-10-05T09:19:37.476Z,14.81
2017-10-05T09:20:37.487Z,14.78
2017-10-05T09:21:37.476Z,14.85
2017-10-05T09:22:37.478Z,14.81
2017-10-05T09:23:37.478Z,14.88
2017-10-05T09:24:37.478Z,14.89
2017-10-05T09:25:37.480Z,14.97
2017-10-05T09:26:37.478Z,15.00
2017-10-05T09:27:37.483Z,15.14
2017-10-05T09:28:37.479Z,15.11
2017-10-05T09:29:37.480Z,15.15
2017-10-05T09:30:37.480Z,15.04
2017-10-05T09:31:37.481Z,15.03
2017-10-05T09:32:37.483Z,14.94
2017-10-05T09:33:37.481Z,14.97
2017-10-05T09:34:37.483Z,14.91
2017-10-05T09:35:37.483Z,14.82
2017-10-05T09:36:37.483Z,14.70
2017-10-05T09:37:37.483Z,14.65
2017-10-05T09:38:37.485Z,14.51
2017-10-05T09:39:37.485Z,14.51
2017-10-05T09:40:37.484Z,14.47
2017-10-05T09:41:37.486Z,14.40
2017-10-05T09:42:37.485Z,14.50
2017-10-05T09:43:37.486Z,14.55
2017-10-05T09:44:37.487Z,14.63
2017-10-05T09:45:37.486Z,14.73
2017-10-05T09:46:37.488Z,14.85
2017-10-05T09:47:37.486Z,14.91
2017-10-05T09:48:37.486Z,14.99
2017-10-05T09:49:37.487Z,14.96
2017-10-05T09:50:37.485Z,14.94
2017-10-05T09:51:37.490Z,14.96
2017-10-05T09:52:37.485Z,15.00
2017-10-05T09:53:37.485Z,15.09
2017-10-05T09:54:37.486Z,15.04
2017-10-05T09:55:37.487Z,15.04
2017-10-05T09:56:37.488Z,15.03
2017-10-05T09:57:37.487Z,15.17
2017-10-05T09:58:37.488Z,15.29
2017-10-05T09:59:37.488Z,15.21
2017-10-05T10:00:37.487Z,15.91
2017-10-05T10:01:37.487Z,16.41
2017-10-05T10:02:37.488Z,16.58
2017-10-05T10:03:37.490Z,16.05
2017-10-05T10:04:37.488Z,15.70
2017-10-05T10:05:37.490Z,15.57
2017-10-05T10:06:37.491Z,15.40
2017-10-05T10:07:37.492Z,15.54
2017-10-05T10:08:37.492Z,15.91
2017-10-05T10:09:37.494Z,15.59
2017-10-05T10:10:37.496Z,15.43
2017-10-05T10:11:37.497Z,15.33
2017-10-05T10:12:37.498Z,15.17
2017-10-05T10:13:37.499Z,15.17
2017-10-05T10:14:37.501Z,15.75
2017-10-05T10:15:37.501Z,16.13
2017-10-05T10:16:37.503Z,16.21
2017-10-05T10:17:37.503Z,16.09
2017-10-05T10:18:37.506Z,16.17
2017-10-05T10:19:37.507Z,16.33
2017-10-05T10:20:37.509Z,16.56
2017-10-05T10:21:37.511Z,16.29
2017-10-05T10:22:37.512Z,16.90
2017-10-05T10:23:37.514Z,16.93
2017-10-05T10:24:37.519Z,16.43
2017-10-05T10:25:37.517Z,16.53
2017-10-05T10:26:37.520Z,16.39
2017-10-05T10:27:37.523Z,16.64
2017-10-05T10:28:37.526Z,16.13
2017-10-05T10:29:37.529Z,15.75
2017-10-05T10:30:37.532Z,15.52
2017-10-05T10:31:37.535Z,15.25
2017-10-05T10:32:37.536Z,15.14
2017-10-05T10:33:37.540Z,14.99
2017-10-05T10:34:37.542Z,14.86
2017-10-05T10:35:37.546Z,14.55
2017-10-05T10:36:37.547Z,14.50
2017-10-05T10:37:37.553Z,14.41
2017-10-05T10:38:37.553Z,14.41
2017-10-05T10:39:37.556Z,14.54
2017-10-05T10:40:37.557Z,14.78
2017-10-05T10:41:37.564Z,14.99
2017-10-05T10:42:37.565Z,15.18
2017-10-05T10:43:37.565Z,15.39
2017-10-05T10:44:37.566Z,15.04
2017-10-05T10:45:37.568Z,14.99
2017-10-05T10:46:37.571Z,15.07
2017-10-05T10:47:37.573Z,15.00
2017-10-05T10:48:37.580Z,15.19
2017-10-05T10:49:37.579Z,15.18
2017-10-05T10:50:37.579Z,15.18
2017-10-05T10:51:37.580Z,15.04
2017-10-05T10:52:37.581Z,14.65
2017-10-05T10:53:37.584Z,14.37
2017-10-05T10:54:37.589Z,14.12
2017-10-05T10:55:37.588Z,14.07
2017-10-05T10:56:37.589Z,13.95
2017-10-05T10:57:37.591Z,13.90
2017-10-05T10:58:37.595Z,13.92
2017-10-05T10:59:37.596Z,13.96
2017-10-05T11:00:37.594Z,13.99
2017-10-05T11:01:37.598Z,14.05
2017-10-05T11:02:37.600Z,13.93
2017-10-05T11:03:37.599Z,13.87
2017-10-05T11:04:37.600Z,13.95
2017-10-05T11:05:37.602Z,13.96
2017-10-05T11:06:37.604Z,13.96
2017-10-05T11:07:37.605Z,13.97
2017-10-05T11:08:37.604Z,14.07
2017-10-05T11:09:37.606Z,14.04
2017-10-05T11:10:37.608Z,14.20
2017-10-05T11:11:37.608Z,14.17
2017-10-05T11:12:37.609Z,14.12
2017-10-05T11:13:37.612Z,14.14
2017-10-05T11:14:37.613Z,14.12
2017-10-05T11:15:37.613Z,14.05
2017-10-05T11:16:37.614Z,13.89
2017-10-05T11:17:37.613Z,14.03
2017-10-05T11:18:37.616Z,14.08
2017-10-05T11:19:37.618Z,13.96
2017-10-05T11:20:37.617Z,13.89
2017-10-05T11:21:37.618Z,13.95
2017-10-05T11:22:37.618Z,14.22
2017-10-05T11:23:37.620Z,14.43
2017-10-05T11:24:37.623Z,14.77
2017-10-05T11:25:37.622Z,14.88
2017-10-05T11:26:37.622Z,14.97
2017-10-05T11:27:37.628Z,15.31
2017-10-05T11:28:37.625Z,15.42
2017-10-05T11:29:37.626Z,15.64
2017-10-05T11:30:37.626Z,15.83
2017-10-05T11:31:37.629Z,15.55
2017-10-05T11:32:37.630Z,15.46
2017-10-05T11:33:37.636Z,15.29
2017-10-05T11:34:37.632Z,15.03
2017-10-05T11:35:37.633Z,14.78
2017-10-05T11:36:37.635Z,14.51
2017-10-05T11:37:37.637Z,14.44
2017-10-05T11:38:37.638Z,14.41
2017-10-05T11:39:37.640Z,14.15
2017-10-05T11:40:37.642Z,13.96
2017-10-05T11:41:37.644Z,13.75
2017-10-05T11:42:37.646Z,13.50
2017-10-05T11:43:37.647Z,13.46
2017-10-05T11:44:37.648Z,13.30
2017-10-05T11:45:37.649Z,13.42
2017-10-05T11:46:37.652Z,13.37
2017-10-05T11:47:37.651Z,13.30
2017-10-05T11:48:37.653Z,13.35
2017-10-05T11:49:37.655Z,13.38
2017-10-05T11:50:37.658Z,13.39
2017-10-05T11:51:37.655Z,13.56
2017-10-05T11:52:37.658Z,13.67
2017-10-05T11:53:37.657Z,13.68
2017-10-05T11:54:37.658Z,13.65
2017-10-05T11:55:37.660Z,13.85
2017-10-05T11:56:37.660Z,13.87
2017-10-05T11:57:37.661Z,13.79
2017-10-05T11:58:37.661Z,13.75
2017-10-05T11:59:37.662Z,13.81
2017-10-05T12:00:37.662Z,13.92
2017-10-05T12:01:37.663Z,14.07
2017-10-05T12:02:37.663Z,14.29
2017-10-05T12:03:37.666Z,14.50
2017-10-05T12:04:37.664Z,14.32
2017-10-05T12:05:37.666Z,14.35
2017-10-05T12:06:37.666Z,14.44
2017-10-05T12:07:37.667Z,14.29
2017-10-05T12:08:37.669Z,14.08
2017-10-05T12:09:37.667Z,13.96
2017-10-05T12:10:37.670Z,14.10
2017-10-05T12:11:37.674Z,13.95
2017-10-05T12:12:37.670Z,13.86
2017-10-05T12:13:37.670Z,13.77
2017-10-05T12:14:37.671Z,13.81
2017-10-05T12:15:37.673Z,13.74
2017-10-05T12:16:37.673Z,13.74
2017-10-05T12:17:37.673Z,13.70
2017-10-05T12:18:37.673Z,13.71
2017-10-05T12:19:37.675Z,13.63
2017-10-05T12:20:37.674Z,13.71
2017-10-05T12:21:37.675Z,13.81
2017-10-05T12:22:37.676Z,13.95
2017-10-05T12:23:37.676Z,14.00
2017-10-05T12:24:37.677Z,14.17
2017-10-05T12:25:37.679Z,14.45
2017-10-05T12:26:37.678Z,14.50
2017-10-05T12:27:37.680Z,14.32
2017-10-05T12:28:37.679Z,14.36
2017-10-05T12:29:37.679Z,14.18
2017-10-05T12:30:37.681Z,14.17
2017-10-05T12:31:37.681Z,14.00
2017-10-05T12:32:37.682Z,13.99
2017-10-05T12:33:37.683Z,14.00
2017-10-05T12:34:37.685Z,14.03
2017-10-05T12:35:37.685Z,14.00
2017-10-05T12:36:37.683Z,14.05
2017-10-05T12:37:37.686Z,13.92
2017-10-05T12:38:37.685Z,13.90
2017-10-05T12:39:37.687Z,13.87
2017-10-05T12:40:37.687Z,13.86
2017-10-05T12:41:37.688Z,13.85
2017-10-05T12:42:37.688Z,13.89
2017-10-05T12:43:37.692Z,13.83
2017-10-05T12:44:37.689Z,13.96
2017-10-05T12:45:37.690Z,13.99
2017-10-05T12:46:37.692Z,14.08
2017-10-05T12:47:37.691Z,14.14
2017-10-05T12:48:37.692Z,14.23
2017-10-05T12:49:37.693Z,14.20
2017-10-05T12:50:37.716Z,13.99
2017-10-05T12:51:37.694Z,14.04
2017-10-05T12:52:37.695Z,13.93